Time;durP1;ratioP1;P1;durP2;ratioP2;P2;SDS_P1;SDS_P2;PMS_P1;PMS_P2;Temp;Humidity;BMP_temperature;BMP_pressure;BME280_temperature;BME280_humidity;BME280_pressure;Samples;Min_cycle;Max_cycle;Signal;HPM_P1;HPM_P2
2021/06/22 00:01:34;;;;;;;6.95;2.20;;;;;;;13.65;72.66;101096.00;5087170;28;20055;-68
2021/06/22 00:04:01;;;;;;;5.22;2.13;;;;;;;13.62;72.84;101096.94;5091461;28;20047;-68
2021/06/22 00:06:27;;;;;;;5.65;1.90;;;;;;;13.57;73.17;101106.66;5091709;28;20043;-66
2021/06/22 00:08:53;;;;;;;6.30;2.17;;;;;;;13.55;72.82;101108.44;5090071;28;20067;-69
2021/06/22 00:11:20;;;;;;;4.63;1.50;;;;;;;13.58;72.53;101112.72;5090862;28;20508;-70
2021/06/22 00:13:48;;;;;;;7.95;1.77;;;;;;;13.59;72.78;101124.91;5086473;28;20413;-68
2021/06/22 00:16:14;;;;;;;4.93;1.83;;;;;;;13.61;72.84;101118.75;5088542;28;20485;-69
2021/06/22 00:18:41;;;;;;;5.65;1.83;;;;;;;13.66;73.33;101106.41;5088237;28;20066;-68
2021/06/22 00:21:07;;;;;;;5.90;2.30;;;;;;;13.62;73.98;101102.19;5088701;28;20041;-68
2021/06/22 00:23:34;;;;;;;5.95;1.73;;;;;;;13.60;74.75;101103.97;5090106;28;20044;-68
2021/06/22 00:26:00;;;;;;;7.18;2.20;;;;;;;13.57;76.03;101105.81;5088095;28;20040;-68
2021/06/22 00:28:27;;;;;;;9.45;2.95;;;;;;;13.65;76.23;101115.16;5088865;28;20047;-69
2021/06/22 00:30:55;;;;;;;9.43;2.42;;;;;;;13.62;76.15;101112.63;5089282;28;20055;-69
2021/06/22 00:33:21;;;;;;;8.85;3.67;;;;;;;13.50;77.26;101092.88;5085015;28;20043;-69
2021/06/22 00:35:47;;;;;;;10.98;2.70;;;;;;;13.35;77.98;101086.25;5075231;28;20044;-69
2021/06/22 00:38:14;;;;;;;5.80;2.30;;;;;;;13.30;77.88;101090.75;5089798;28;20046;-68
2021/06/22 00:40:40;;;;;;;7.45;2.70;;;;;;;13.21;78.52;101093.59;5087717;28;20059;-68
2021/06/22 00:43:07;;;;;;;9.93;2.80;;;;;;;13.21;78.87;101094.44;5088821;28;20040;-68
2021/06/22 00:45:35;;;;;;;13.57;3.30;;;;;;;13.14;79.09;101097.22;5085248;28;20044;-68
2021/06/22 00:48:04;;;;;;;10.57;3.05;;;;;;;13.16;79.02;101090.22;5085376;28;20047;-68
2021/06/22 00:50:31;;;;;;;9.10;2.72;;;;;;;13.13;79.32;101087.66;5088356;28;20413;-69
2021/06/22 00:52:57;;;;;;;12.88;3.55;;;;;;;13.17;79.24;101071.91;5088436;28;20039;-67
2021/06/22 00:55:30;;;;;;;8.98;3.10;;;;;;;13.19;79.59;101075.31;5089838;28;20048;-67
2021/06/22 00:57:59;;;;;;;8.98;3.25;;;;;;;13.24;79.33;101090.88;5083196;28;20036;-68
2021/06/22 01:00:25;;;;;;;10.07;3.22;;;;;;;13.24;78.78;101101.34;5088647;28;20075;-67
2021/06/22 01:02:54;;;;;;;9.18;2.90;;;;;;;13.15;78.62;101098.94;5087188;28;20043;-68
2021/06/22 01:05:22;;;;;;;14.27;3.78;;;;;;;13.08;78.72;101095.63;5085927;28;20112;-68
2021/06/22 01:07:51;;;;;;;9.60;3.20;;;;;;;13.05;78.71;101099.16;5090130;28;20052;-68
2021/06/22 01:10:18;;;;;;;7.80;3.38;;;;;;;13.02;78.51;101104.50;5089554;28;20047;-68
2021/06/22 01:12:44;;;;;;;10.73;3.22;;;;;;;13.06;78.16;101093.06;5088854;28;20047;-68
2021/06/22 01:15:13;;;;;;;9.90;3.10;;;;;;;13.02;78.58;101101.00;5086464;28;20044;-67
2021/06/22 01:17:39;;;;;;;12.10;3.38;;;;;;;12.98;78.46;101092.38;5087707;28;20043;-68
2021/06/22 01:20:07;;;;;;;13.05;3.38;;;;;;;12.93;78.90;101101.22;5083621;28;20040;-69
2021/06/22 01:22:35;;;;;;;13.43;3.78;;;;;;;12.97;78.77;101095.03;5090079;28;20044;-69
2021/06/22 01:25:04;;;;;;;10.50;3.10;;;;;;;13.03;78.52;101094.88;5088497;28;20440;-68
2021/06/22 01:27:31;;;;;;;9.65;3.20;;;;;;;12.91;78.39;101091.66;5089887;28;20441;-68
2021/06/22 01:29:59;;;;;;;9.55;3.00;;;;;;;12.86;78.36;101090.94;5089066;28;20509;-68
2021/06/22 01:32:26;;;;;;;11.98;3.17;;;;;;;12.80;78.61;101098.03;5087444;28;20040;-68
2021/06/22 01:34:52;;;;;;;17.73;4.40;;;;;;;12.80;78.83;101098.88;5085391;28;20031;-67
2021/06/22 01:37:19;;;;;;;9.75;3.45;;;;;;;12.78;79.52;101099.81;5086112;28;20590;-69
2021/06/22 01:39:47;;;;;;;12.55;3.50;;;;;;;12.73;80.06;101092.94;5086710;28;20047;-68
2021/06/22 01:42:13;;;;;;;10.73;3.45;;;;;;;12.78;80.89;101099.81;5086511;28;20080;-68
2021/06/22 01:44:40;;;;;;;8.65;3.55;;;;;;;12.70;81.83;101098.25;5087368;28;20040;-67
2021/06/22 01:47:07;;;;;;;10.18;3.80;;;;;;;12.74;81.76;101109.47;5088495;28;20040;-68
2021/06/22 01:49:34;;;;;;;11.13;3.60;;;;;;;12.72;81.13;101106.03;5083874;28;20048;-68
2021/06/22 01:52:00;;;;;;;8.70;3.35;;;;;;;12.64;81.01;101103.56;5088691;28;20036;-68
2021/06/22 01:54:27;;;;;;;15.85;3.30;;;;;;;12.60;81.18;101102.78;5083456;28;20370;-68
2021/06/22 01:56:55;;;;;;;10.55;3.45;;;;;;;12.60;81.23;101107.16;5089342;28;20051;-68
2021/06/22 01:59:22;;;;;;;15.68;4.05;;;;;;;12.64;81.32;101106.19;5086073;28;20056;-68
2021/06/22 02:01:48;;;;;;;11.43;3.42;;;;;;;12.65;81.59;101105.31;5086256;28;20128;-68
2021/06/22 02:04:16;;;;;;;15.85;3.83;;;;;;;12.63;81.19;101096.63;5085269;28;20040;-68
2021/06/22 02:06:43;;;;;;;11.32;3.92;;;;;;;12.59;81.69;101095.00;5090555;28;20045;-69
2021/06/22 02:09:09;;;;;;;11.25;3.47;;;;;;;12.52;82.21;101090.81;5089487;28;20040;-69
2021/06/22 02:11:36;;;;;;;13.73;3.92;;;;;;;12.52;81.87;101096.03;5087120;28;20044;-68
2021/06/22 02:14:05;;;;;;;15.23;4.25;;;;;;;12.50;81.16;101095.22;5081764;28;20481;-68
2021/06/22 02:16:32;;;;;;;12.60;3.80;;;;;;;12.42;81.58;101092.75;5085113;28;20040;-69
2021/06/22 02:18:59;;;;;;;9.77;3.15;;;;;;;12.37;81.89;101079.81;5090083;28;20478;-68
2021/06/22 02:21:26;;;;;;;16.70;4.22;;;;;;;12.37;81.88;101084.19;5088611;28;20055;-67
2021/06/22 02:23:52;;;;;;;13.00;3.80;;;;;;;12.33;82.06;101088.56;5089452;28;20047;-69
2021/06/22 02:26:19;;;;;;;14.65;4.28;;;;;;;12.34;81.86;101098.13;5088460;28;20371;-67
2021/06/22 02:28:45;;;;;;;11.00;3.55;;;;;;;12.36;81.87;101092.91;5086267;28;20078;-67
2021/06/22 02:31:13;;;;;;;9.07;3.30;;;;;;;12.18;82.43;101094.13;5086523;28;20063;-67
2021/06/22 02:33:39;;;;;;;19.33;5.57;;;;;;;12.12;82.94;101085.56;5088577;28;20044;-68
2021/06/22 02:36:07;;;;;;;13.65;4.97;;;;;;;12.12;82.78;101085.56;5081515;28;20050;-68
2021/06/22 02:38:34;;;;;;;14.60;4.93;;;;;;;12.11;82.95;101083.81;5088969;28;20058;-67
2021/06/22 02:41:00;;;;;;;11.88;4.40;;;;;;;11.96;83.53;101082.34;5087836;28;20040;-68
2021/06/22 02:43:27;;;;;;;15.07;4.35;;;;;;;11.95;83.59;101084.97;5085852;28;20044;-68
2021/06/22 02:45:53;;;;;;;14.38;4.18;;;;;;;11.90;83.99;101089.44;5087958;28;20040;-69
2021/06/22 02:48:21;;;;;;;14.05;4.65;;;;;;;11.90;83.87;101090.28;5086982;28;20093;-68
2021/06/22 02:50:47;;;;;;;17.85;4.70;;;;;;;11.88;84.00;101086.81;5086421;28;20048;-68
2021/06/22 02:53:14;;;;;;;19.98;5.50;;;;;;;11.89;84.09;101093.75;5086427;28;20044;-69
2021/06/22 02:55:41;;;;;;;11.88;4.05;;;;;;;11.98;83.87;101093.63;5087352;28;20040;-67
2021/06/22 02:58:08;;;;;;;17.13;4.30;;;;;;;12.00;83.62;101106.66;5088404;28;20040;-68
2021/06/22 03:00:35;;;;;;;15.52;4.53;;;;;;;12.00;83.91;101117.06;5087745;28;20056;-68
2021/06/22 03:03:02;;;;;;;14.68;4.05;;;;;;;11.97;83.95;101119.69;5085331;28;20094;-68
2021/06/22 03:05:29;;;;;;;14.18;4.53;;;;;;;11.97;83.74;101115.38;5086963;28;20543;-68
2021/06/22 03:07:56;;;;;;;11.98;4.07;;;;;;;11.97;83.64;101117.09;5087716;28;20046;-67
2021/06/22 03:10:25;;;;;;;16.10;5.45;;;;;;;12.04;83.98;101108.28;5091849;28;20043;-69
2021/06/22 03:12:52;;;;;;;16.27;4.95;;;;;;;11.98;84.21;101116.22;5084296;28;20040;-68
2021/06/22 03:15:19;;;;;;;15.82;4.95;;;;;;;12.00;84.03;101119.69;5089467;28;20040;-68
2021/06/22 03:17:46;;;;;;;13.98;6.13;;;;;;;11.99;84.08;101123.16;5090161;28;20044;-68
2021/06/22 03:20:13;;;;;;;13.32;5.53;;;;;;;11.89;84.66;101121.59;5092425;28;20512;-67
2021/06/22 03:22:42;;;;;;;17.42;5.35;;;;;;;11.92;84.87;101116.34;5086856;28;20385;-67
2021/06/22 03:25:10;;;;;;;14.07;5.57;;;;;;;11.87;85.14;101125.97;5089549;28;20067;-68
2021/06/22 03:27:37;;;;;;;21.42;6.90;;;;;;;11.89;85.18;101124.19;5092138;28;20071;-68
2021/06/22 03:30:05;;;;;;;13.63;5.72;;;;;;;11.91;85.18;101127.66;5090398;28;20051;-69
2021/06/22 03:32:32;;;;;;;12.18;5.10;;;;;;;11.86;85.52;101135.53;5088066;28;20055;-68
2021/06/22 03:34:58;;;;;;;13.23;5.03;;;;;;;11.81;85.82;101142.56;5083831;28;20044;-68
2021/06/22 03:37:25;;;;;;;13.23;4.85;;;;;;;11.82;85.98;101133.88;5090021;28;20036;-69
2021/06/22 03:39:52;;;;;;;9.80;4.90;;;;;;;11.95;85.56;101137.09;5090036;28;20048;-69
2021/06/22 03:42:19;;;;;;;13.85;5.38;;;;;;;11.92;85.88;101140.63;5088389;28;20052;-68
2021/06/22 03:44:45;;;;;;;12.85;5.18;;;;;;;11.91;86.06;101135.47;5089792;28;20043;-68
2021/06/22 03:47:12;;;;;;;16.25;5.53;;;;;;;11.91;85.85;101138.91;5090323;28;20377;-68
2021/06/22 03:49:39;;;;;;;15.32;5.63;;;;;;;12.03;86.01;101139.63;5087845;28;20052;-68
2021/06/22 03:52:06;;;;;;;15.50;6.95;;;;;;;11.98;85.97;101150.13;5087209;28;20492;-69
2021/06/22 03:54:32;;;;;;;14.05;5.60;;;;;;;12.02;85.98;101151.81;5086540;28;20157;-68
2021/06/22 03:57:00;;;;;;;13.45;5.40;;;;;;;12.00;86.13;101150.97;5091170;28;20040;-68
2021/06/22 03:59:26;;;;;;;13.35;5.32;;;;;;;11.97;86.62;101158.81;5087198;28;20405;-68
2021/06/22 04:01:53;;;;;;;20.77;6.03;;;;;;;11.98;86.36;101155.34;5088022;28;20183;-68
2021/06/22 04:04:19;;;;;;;16.00;6.07;;;;;;;11.95;86.65;101155.34;5085730;28;20058;-68
2021/06/22 04:06:46;;;;;;;19.17;8.30;;;;;;;11.92;87.03;101150.22;5088706;28;20075;-68
2021/06/22 04:09:12;;;;;;;17.95;6.75;;;;;;;11.92;87.23;101156.28;5087138;28;20044;-69
2021/06/22 04:11:39;;;;;;;16.45;5.90;;;;;;;11.91;87.40;101159.75;5087554;28;20036;-68
2021/06/22 04:14:07;;;;;;;16.30;6.00;;;;;;;11.90;87.42;101154.59;5081606;28;20040;-69
2021/06/22 04:16:33;;;;;;;12.10;5.70;;;;;;;11.97;87.47;101158.81;5086321;28;20528;-68
2021/06/22 04:18:59;;;;;;;16.67;6.20;;;;;;;11.92;87.57;101165.84;5085489;28;20481;-69
2021/06/22 04:21:26;;;;;;;19.58;7.35;;;;;;;11.94;87.40;101157.13;5088330;28;20051;-68
2021/06/22 04:23:52;;;;;;;13.00;6.40;;;;;;;11.98;87.36;101156.19;5086205;28;20045;-69
2021/06/22 04:26:19;;;;;;;17.95;6.80;;;;;;;11.93;87.26;101162.34;5085812;28;20044;-68
2021/06/22 04:28:45;;;;;;;12.80;6.22;;;;;;;11.97;87.20;101164.00;5089294;28;20040;-68
2021/06/22 04:31:14;;;;;;;22.58;5.82;;;;;;;12.10;86.91;101162.06;5089963;28;20489;-68
2021/06/22 04:33:40;;;;;;;14.77;6.30;;;;;;;12.17;86.29;101155.00;5083410;28;20477;-68
2021/06/22 04:36:08;;;;;;;17.77;5.57;;;;;;;12.21;86.37;101148.84;5088578;28;20044;-68
2021/06/22 04:38:34;;;;;;;16.90;6.80;;;;;;;12.18;85.96;101156.72;5083744;28;20175;-68
2021/06/22 04:41:01;;;;;;;20.65;5.32;;;;;;;12.12;86.39;101165.50;5085895;28;20040;-74
2021/06/22 04:43:27;;;;;;;11.50;5.75;;;;;;;12.06;86.58;101161.25;5085615;28;20097;-67
2021/06/22 04:45:54;;;;;;;16.17;6.07;;;;;;;12.11;86.21;101161.19;5086698;28;20489;-68
2021/06/22 04:48:22;;;;;;;20.98;6.22;;;;;;;12.22;85.53;101163.59;5086824;28;20040;-67
2021/06/22 04:50:48;;;;;;;13.30;5.82;;;;;;;12.23;85.96;101167.91;5084997;28;20052;-68
2021/06/22 04:53:15;;;;;;;19.42;6.53;;;;;;;12.32;85.59;101165.16;5090346;28;20050;-68
2021/06/22 04:55:41;;;;;;;15.52;5.88;;;;;;;12.48;84.76;101160.44;5087141;28;20044;-67
2021/06/22 04:58:08;;;;;;;16.13;4.88;;;;;;;12.53;84.12;101168.19;5086116;28;20044;-68
2021/06/22 05:00:34;;;;;;;15.18;6.00;;;;;;;12.60;83.99;101165.44;5079545;28;20044;-68
2021/06/22 05:03:01;;;;;;;11.00;4.97;;;;;;;12.70;83.17;101173.94;5085003;28;20108;-67
2021/06/22 05:05:29;;;;;;;12.07;4.72;;;;;;;12.81;82.20;101175.47;5087328;28;20040;-68
2021/06/22 05:07:55;;;;;;;15.07;5.10;;;;;;;12.73;81.80;101173.84;5090015;28;20047;-66
2021/06/22 05:10:22;;;;;;;15.18;5.03;;;;;;;12.93;81.93;101175.16;5086218;28;20047;-67
2021/06/22 05:12:48;;;;;;;11.80;4.65;;;;;;;12.95;81.44;101180.38;5083941;28;20070;-68
2021/06/22 05:15:15;;;;;;;14.25;5.30;;;;;;;13.00;80.86;101179.38;5085611;28;20386;-67
2021/06/22 05:17:42;;;;;;;17.35;5.68;;;;;;;13.12;80.00;101177.41;5086757;28;20112;-67
2021/06/22 05:20:09;;;;;;;14.80;4.85;;;;;;;13.16;79.99;101177.28;5088034;28;20040;-67
2021/06/22 05:22:37;;;;;;;15.68;5.68;;;;;;;13.09;80.16;101180.06;5082181;28;20096;-67
2021/06/22 05:25:05;;;;;;;15.00;5.32;;;;;;;13.18;80.01;101180.69;5082044;28;20041;-68
2021/06/22 05:27:32;;;;;;;11.35;5.15;;;;;;;13.22;79.94;101181.50;5084043;28;20408;-68
2021/06/22 05:29:58;;;;;;;12.05;5.03;;;;;;;13.34;79.85;101191.66;5082271;28;20051;-68
2021/06/22 05:32:25;;;;;;;16.85;5.28;;;;;;;13.72;78.61;101182.97;5084137;28;20047;-67
2021/06/22 05:34:51;;;;;;;18.73;5.82;;;;;;;13.97;76.91;101185.81;5089911;28;20048;-68
2021/06/22 05:37:19;;;;;;;16.20;4.78;;;;;;;14.42;77.73;101190.69;5085102;28;20048;-66
2021/06/22 05:39:48;;;;;;;18.25;5.03;;;;;;;14.73;75.98;101196.81;5087833;28;20076;-67
2021/06/22 05:42:15;;;;;;;22.15;4.93;;;;;;;15.08;75.63;101193.16;5085629;28;20138;-67
2021/06/22 05:44:41;;;;;;;11.75;4.15;;;;;;;15.27;72.92;101187.38;5087264;28;20048;-65
2021/06/22 05:47:08;;;;;;;14.70;4.35;;;;;;;15.27;71.51;101189.97;5086945;28;20040;-66
2021/06/22 05:49:34;;;;;;;21.40;4.70;;;;;;;15.08;71.60;101197.53;5085896;28;20040;-66
2021/06/22 05:52:02;;;;;;;12.10;4.50;;;;;;;15.05;73.16;101195.88;5088329;28;20040;-67
2021/06/22 05:54:28;;;;;;;23.67;5.10;;;;;;;14.91;74.26;101198.94;5087607;28;20051;-65
2021/06/22 05:56:56;;;;;;;13.82;4.32;;;;;;;15.08;73.02;101194.94;5084022;28;20051;-64
2021/06/22 05:59:22;;;;;;;11.93;4.57;;;;;;;14.98;72.55;101194.34;5083867;28;20369;-65
2021/06/22 06:01:49;;;;;;;11.90;4.00;;;;;;;15.08;73.46;101206.25;5088002;28;20053;-66
2021/06/22 06:04:15;;;;;;;12.10;3.90;;;;;;;15.00;72.87;101212.66;5088031;28;20047;-66
2021/06/22 06:06:42;;;;;;;12.30;4.43;;;;;;;15.12;72.30;101217.53;5088413;28;20048;-67
2021/06/22 06:09:08;;;;;;;13.27;4.13;;;;;;;15.18;73.98;101217.31;5082951;28;20422;-67
2021/06/22 06:11:35;;;;;;;17.25;4.45;;;;;;;15.18;72.33;101222.56;5085886;28;20044;-66
2021/06/22 06:14:03;;;;;;;11.40;4.10;;;;;;;15.00;73.17;101226.59;5081228;28;20053;-67
2021/06/22 06:16:29;;;;;;;11.52;4.10;;;;;;;15.02;72.09;101227.41;5086492;28;20116;-67
2021/06/22 06:18:56;;;;;;;10.50;4.20;;;;;;;14.98;72.30;101222.31;5089503;28;20040;-66
2021/06/22 06:21:23;;;;;;;13.63;4.25;;;;;;;15.08;72.96;101229.84;5087520;28;20047;-67
2021/06/22 06:23:50;;;;;;;15.07;4.45;;;;;;;15.27;72.10;101223.19;5089164;28;20131;-67
2021/06/22 06:26:18;;;;;;;16.73;4.20;;;;;;;15.27;72.38;101220.56;5088538;28;20039;-66
2021/06/22 06:28:47;;;;;;;11.15;3.53;;;;;;;15.35;71.43;101229.03;5087117;28;20051;-66
2021/06/22 06:31:15;;;;;;;13.63;3.75;;;;;;;15.24;70.33;101218.91;5086651;28;20059;-66
2021/06/22 06:33:41;;;;;;;12.85;4.18;;;;;;;15.10;71.69;101214.09;5080744;28;20063;-67
2021/06/22 06:36:08;;;;;;;10.88;4.18;;;;;;;14.91;71.23;101225.13;5082979;28;20048;-66
2021/06/22 06:38:34;;;;;;;11.85;4.30;;;;;;;14.78;72.53;101231.59;5089530;28;20493;-67
2021/06/22 06:41:01;;;;;;;14.27;4.65;;;;;;;14.67;72.46;101231.06;5087081;28;20044;-66
2021/06/22 06:43:27;;;;;;;12.52;3.65;;;;;;;14.56;72.43;101229.56;5084188;28;20063;-67
2021/06/22 06:45:54;;;;;;;10.00;4.40;;;;;;;14.73;72.93;101226.50;5085908;28;20040;-66
2021/06/22 06:48:23;;;;;;;20.48;5.13;;;;;;;14.68;72.14;101228.38;5084186;28;20044;-66
2021/06/22 06:50:50;;;;;;;15.32;4.20;;;;;;;14.81;72.85;101231.53;5085871;28;20056;-66
2021/06/22 06:53:16;;;;;;;13.18;4.13;;;;;;;14.85;71.73;101235.75;5085400;28;20091;-66
2021/06/22 06:55:45;;;;;;;10.88;3.58;;;;;;;15.02;71.24;101239.66;5089050;28;20048;-67
2021/06/22 06:58:11;;;;;;;15.60;4.72;;;;;;;15.08;71.05;101242.09;5091319;28;20080;-67
2021/06/22 07:00:39;;;;;;;11.45;3.88;;;;;;;15.47;69.92;101241.75;5084322;28;20094;-67
2021/06/22 07:03:07;;;;;;;12.30;4.10;;;;;;;15.77;68.43;101235.59;5089087;28;20048;-67
2021/06/22 07:05:35;;;;;;;11.60;4.00;;;;;;;15.82;67.70;101242.38;5088933;28;20044;-66
2021/06/22 07:08:03;;;;;;;11.88;4.07;;;;;;;15.99;67.33;101248.88;5082484;28;20059;-66
2021/06/22 07:10:31;;;;;;;10.32;3.80;;;;;;;16.13;66.95;101254.50;5089101;28;20052;-65
2021/06/22 07:12:59;;;;;;;15.63;4.22;;;;;;;16.07;66.75;101248.63;5085732;28;20044;-66
2021/06/22 07:15:26;;;;;;;9.93;3.60;;;;;;;15.98;67.39;101252.41;5079872;28;20489;-67
2021/06/22 07:17:53;;;;;;;13.13;4.10;;;;;;;15.68;67.04;101249.84;5091173;28;20054;-67
2021/06/22 07:20:20;;;;;;;11.73;3.45;;;;;;;15.31;68.15;101249.25;5089599;28;20040;-66
2021/06/22 07:22:47;;;;;;;15.77;3.80;;;;;;;15.13;69.39;101250.66;5086894;28;20059;-66
2021/06/22 07:25:15;;;;;;;13.27;4.07;;;;;;;15.08;69.75;101242.09;5088944;28;20048;-66
2021/06/22 07:27:42;;;;;;;9.73;4.25;;;;;;;15.02;69.86;101242.28;5089079;28;20173;-66
2021/06/22 07:30:10;;;;;;;8.90;3.45;;;;;;;14.86;69.41;101245.34;5086868;28;20043;-64
2021/06/22 07:32:37;;;;;;;13.10;4.30;;;;;;;14.87;70.54;101238.34;5091015;28;20040;-68
2021/06/22 07:35:03;;;;;;;11.93;4.13;;;;;;;14.74;71.41;101236.06;5064789;22;20520;-65
2021/06/22 07:37:31;;;;;;;9.05;4.03;;;;;;;14.74;71.52;101251.78;4964694;28;20054;-64
2021/06/22 07:39:58;;;;;;;10.32;3.65;;;;;;;14.86;71.13;101250.56;4959374;28;20398;-64
2021/06/22 07:42:25;;;;;;;10.57;3.90;;;;;;;14.89;70.38;101255.72;4971587;28;20269;-64
2021/06/22 07:44:51;;;;;;;10.82;3.72;;;;;;;15.06;70.73;101255.25;4969561;28;20062;-65
2021/06/22 07:47:18;;;;;;;11.45;3.40;;;;;;;14.97;69.90;101254.63;4959784;28;20081;-65
2021/06/22 07:49:44;;;;;;;11.05;3.88;;;;;;;15.04;69.91;101256.16;4961505;28;20054;-65
2021/06/22 07:52:11;;;;;;;15.32;4.28;;;;;;;14.97;69.57;101258.13;4958795;28;20079;-65
2021/06/22 07:54:37;;;;;;;15.18;4.05;;;;;;;14.87;70.33;101257.53;4959588;28;20059;-65
2021/06/22 07:57:05;;;;;;;10.13;3.45;;;;;;;14.82;70.10;101253.31;4961141;28;20050;-64
2021/06/22 07:59:32;;;;;;;15.18;4.32;;;;;;;14.80;70.00;101253.38;4951108;28;20051;-65
2021/06/22 08:01:58;;;;;;;10.27;3.58;;;;;;;14.75;70.19;101245.66;4954386;28;20063;-62
2021/06/22 08:04:25;;;;;;;11.82;3.60;;;;;;;14.84;70.25;101244.50;4959379;28;20062;-65
2021/06/22 08:06:53;;;;;;;11.52;3.45;;;;;;;14.70;70.37;101251.91;4961604;28;20047;-65
2021/06/22 08:09:19;;;;;;;11.43;4.80;;;;;;;14.75;70.63;101242.16;4958403;28;20474;-66
2021/06/22 08:11:46;;;;;;;11.82;3.92;;;;;;;14.83;70.27;101244.56;4961298;28;20063;-65
2021/06/22 08:14:14;;;;;;;10.95;3.08;;;;;;;14.70;70.32;101252.75;4956280;28;22059;-64
2021/06/22 08:16:41;;;;;;;14.63;3.60;;;;;;;14.83;70.80;101255.03;4966290;28;20497;-64
2021/06/22 08:19:07;;;;;;;12.00;3.90;;;;;;;14.86;70.55;101240.09;4958010;28;20056;-64
2021/06/22 08:21:33;;;;;;;12.10;4.40;;;;;;;14.88;70.69;101246.16;4966456;28;20055;-63
2021/06/22 08:24:00;;;;;;;8.05;3.17;;;;;;;15.02;68.64;101250.13;4961219;28;20138;-64
2021/06/22 08:26:27;;;;;;;16.15;3.85;;;;;;;15.20;68.31;101249.59;4966139;28;20424;-63
2021/06/22 08:28:53;;;;;;;11.25;3.42;;;;;;;15.33;68.77;101243.94;4960258;28;20051;-64
2021/06/22 08:31:21;;;;;;;10.30;3.33;;;;;;;15.39;67.69;101239.38;4961549;28;20051;-63
2021/06/22 08:33:47;;;;;;;11.13;3.28;;;;;;;15.43;67.34;101245.38;4961796;28;20096;-64
2021/06/22 08:36:14;;;;;;;13.60;3.63;;;;;;;15.28;67.38;101238.84;4976894;28;20399;-63
2021/06/22 08:38:41;;;;;;;13.60;3.55;;;;;;;15.22;68.72;101242.50;4964579;28;20062;-62
2021/06/22 08:41:08;;;;;;;10.32;3.35;;;;;;;15.42;66.95;101241.06;4965043;28;20048;-63
2021/06/22 08:43:35;;;;;;;11.15;3.15;;;;;;;15.54;66.92;101248.50;4962792;28;20051;-64
2021/06/22 08:46:03;;;;;;;7.65;3.10;;;;;;;15.77;66.11;101252.16;4962266;28;20043;-64
2021/06/22 08:48:31;;;;;;;9.00;3.13;;;;;;;15.73;65.68;101255.78;4961488;28;20053;-63
2021/06/22 08:50:58;;;;;;;13.98;3.40;;;;;;;15.73;65.36;101258.41;4955778;28;20085;-64
2021/06/22 08:53:25;;;;;;;10.23;3.25;;;;;;;15.87;64.91;101257.13;4953410;28;20059;-64
2021/06/22 08:55:52;;;;;;;9.60;3.20;;;;;;;15.94;64.55;101264.78;4958775;28;20389;-65
2021/06/22 08:58:19;;;;;;;12.60;3.10;;;;;;;15.88;64.64;101264.09;4958298;28;20071;-64
2021/06/22 09:00:48;;;;;;;13.52;3.90;;;;;;;15.88;65.70;101251.00;4957896;28;20138;-62
2021/06/22 09:03:17;;;;;;;14.60;4.25;;;;;;;15.97;65.90;101264.66;4959445;28;20050;-64
2021/06/22 09:05:46;;;;;;;9.52;3.50;;;;;;;15.93;65.19;101255.19;4958939;28;20524;-63
2021/06/22 09:08:24;;;;;;;11.35;3.53;;;;;;;16.10;65.26;101251.13;4960745;28;20054;-64
2021/06/22 09:10:53;;;;;;;12.68;3.92;;;;;;;16.09;64.94;101247.66;4956371;28;20468;-65
2021/06/22 09:13:21;;;;;;;8.98;2.80;;;;;;;16.14;64.08;101260.63;4958580;28;20055;-64
2021/06/22 09:15:49;;;;;;;10.95;3.40;;;;;;;16.01;63.32;101257.56;4965958;28;20528;-63
2021/06/22 09:18:24;;;;;;;8.07;3.13;;;;;;;15.83;63.84;101245.88;4963885;28;20041;-64
2021/06/22 09:20:52;;;;;;;7.35;3.10;;;;;;;15.87;64.22;101241.41;4958272;28;20459;-62
2021/06/22 09:23:21;;;;;;;12.40;3.13;;;;;;;16.11;63.44;101243.22;4968673;28;20462;-65
2021/06/22 09:25:49;;;;;;;9.05;3.38;;;;;;;16.21;62.74;101256.84;4960429;28;20409;-62
2021/06/22 09:28:17;;;;;;;11.15;3.47;;;;;;;16.12;62.72;101255.41;4958170;28;20047;-61
2021/06/22 09:30:50;;;;;;;8.60;3.25;;;;;;;16.07;62.83;101251.25;4966367;28;20058;-64
2021/06/22 09:33:20;;;;;;;10.45;3.20;;;;;;;16.30;63.39;101247.81;4967068;28;20089;-65
2021/06/22 09:35:47;;;;;;;7.72;3.30;;;;;;;16.19;62.44;101236.81;4960567;28;20134;-65
2021/06/22 09:38:15;;;;;;;11.55;4.00;;;;;;;15.98;61.53;101240.13;4962411;28;20390;-65
2021/06/22 09:40:42;;;;;;;9.38;3.30;;;;;;;16.00;61.94;101246.19;4961445;28;20051;-65
2021/06/22 09:43:09;;;;;;;12.60;3.60;;;;;;;16.17;61.84;101250.84;4970421;28;20104;-63
2021/06/22 09:45:37;;;;;;;7.43;3.65;;;;;;;16.26;62.84;101254.94;4954706;28;20058;-63
2021/06/22 09:48:05;;;;;;;12.90;3.83;;;;;;;16.57;62.93;101243.31;4959483;28;20046;-64
2021/06/22 09:50:38;;;;;;;9.07;3.20;;;;;;;16.69;62.51;101255.19;4955037;28;20055;-63
2021/06/22 09:53:26;;;;;;;12.93;3.55;;;;;;;16.94;61.47;101251.66;4958692;28;20446;-63
2021/06/22 09:55:53;;;;;;;8.07;2.95;;;;;;;16.88;59.57;101260.59;4953048;28;20051;-64
2021/06/22 09:58:35;;;;;;;10.57;3.00;;;;;;;16.93;60.08;101265.66;4951756;28;20092;-62
2021/06/22 10:01:02;;;;;;;10.23;3.42;;;;;;;16.83;59.82;101261.66;4950392;28;20048;-62
2021/06/22 10:03:35;;;;;;;11.68;3.00;;;;;;;16.93;60.88;101263.03;4961321;28;20047;-64
2021/06/22 10:06:06;;;;;;;9.85;3.25;;;;;;;17.17;60.88;101258.66;4951995;28;20056;-63
2021/06/22 10:08:52;;;;;;;7.25;3.13;;;;;;;17.56;60.11;101265.03;4950201;28;20503;-63
2021/06/22 10:11:33;;;;;;;9.60;3.90;;;;;;;18.05;58.12;101254.31;4951527;28;20458;-60
2021/06/22 10:14:02;;;;;;;9.38;3.53;;;;;;;18.57;57.83;101263.47;4958347;28;20062;-62
2021/06/22 10:16:31;;;;;;;15.65;3.67;;;;;;;18.38;56.62;101266.09;4956495;28;20101;-61
2021/06/22 10:18:58;;;;;;;11.00;4.20;;;;;;;18.10;56.97;101264.66;4956120;28;20420;-64
2021/06/22 10:21:25;;;;;;;10.27;3.30;;;;;;;18.09;56.52;101268.19;4960030;28;20046;-63
2021/06/22 10:23:53;;;;;;;14.65;3.25;;;;;;;18.12;57.89;101261.03;4957301;28;20052;-61
2021/06/22 10:26:20;;;;;;;14.95;4.30;;;;;;;18.14;57.31;101282.88;4955946;28;20051;-63
2021/06/22 10:28:47;;;;;;;14.52;4.00;;;;;;;17.91;57.80;101262.75;4956718;28;20120;-63
2021/06/22 10:31:14;;;;;;;9.98;4.20;;;;;;;17.76;57.36;101266.88;4961342;28;20063;-62
2021/06/22 10:33:40;;;;;;;17.30;5.55;;;;;;;17.33;58.93;101264.19;4960474;28;20047;-64
2021/06/22 10:36:08;;;;;;;13.45;4.28;;;;;;;17.53;58.80;101265.16;4957030;28;20090;-63
2021/06/22 10:38:37;;;;;;;14.75;4.78;;;;;;;17.42;59.22;101256.88;4957082;28;20528;-65
2021/06/22 10:41:06;;;;;;;14.05;5.07;;;;;;;17.44;58.88;101249.75;4965165;28;20062;-64
2021/06/22 10:43:38;;;;;;;10.38;4.75;;;;;;;17.30;58.92;101251.16;4964947;28;20162;-65
2021/06/22 10:46:06;;;;;;;10.70;4.28;;;;;;;17.66;58.64;101250.59;4962066;28;20055;-65
2021/06/22 10:48:40;;;;;;;9.07;3.83;;;;;;;17.81;58.91;101250.91;4962097;28;20058;-64
2021/06/22 10:51:29;;;;;;;14.43;4.40;;;;;;;17.46;58.61;101253.19;4971190;28;20043;-63
2021/06/22 10:53:55;;;;;;;13.23;5.20;;;;;;;17.44;58.70;101252.38;4958304;28;20317;-62
2021/06/22 10:56:24;;;;;;;14.85;4.72;;;;;;;17.35;58.44;101253.63;4959467;28;20050;-64
2021/06/22 10:59:23;;;;;;;17.55;12.45;;;;;;;17.43;59.36;101254.16;4952176;28;20044;-65
2021/06/22 11:02:01;;;;;;;14.57;5.00;;;;;;;17.47;57.84;101257.53;4958599;28;20077;-64
2021/06/22 11:04:27;;;;;;;12.43;4.22;;;;;;;17.42;58.13;101251.59;4958529;28;20130;-64
2021/06/22 11:07:16;;;;;;;8.50;4.25;;;;;;;17.25;59.00;101261.00;4952438;28;20043;-64
2021/06/22 11:10:10;;;;;;;15.30;4.88;;;;;;;17.11;59.67;101263.31;4951376;28;20055;-64
2021/06/22 11:12:53;;;;;;;9.73;4.13;;;;;;;16.92;59.44;101259.56;4949376;28;20131;-64
2021/06/22 11:15:20;;;;;;;14.88;5.07;;;;;;;17.00;60.06;101253.19;4951926;28;20058;-61
2021/06/22 11:17:59;;;;;;;7.97;4.13;;;;;;;17.22;59.94;101261.09;4957388;28;20051;-62
2021/06/22 11:20:29;;;;;;;12.25;4.20;;;;;;;17.10;58.95;101262.44;4955451;28;20051;-64
2021/06/22 11:23:09;;;;;;;12.18;5.10;;;;;;;17.11;59.32;101263.31;4953787;28;20051;-62